This is the latest recevied weather packets stored in our database for station/object TG9SRP-22. If no packets are shown the sender has not sent any weather packets the latest 10 day(s).
| Time | Temp. | Humidity | Pressure | Rain* | Wind** | Luminosity | Snow |
|---|---|---|---|---|---|---|---|
| 1777844268 | 22.22° C | 63% | 1013 hPa | 0.25 mm | - | - | - |
| 1777843668 | 18.89° C | 10% | - | 1.27 mm | - | - | - |
| 1777843067 | 18.89° C | 10% | - | 1.52 mm | - | - | - |
| 1777842467 | 18.89° C | 10% | - | 1.52 mm | - | - | - |
| 1777841866 | 20° C | 10% | - | 0.25 mm | - | - | - |
| 1777841266 | 20° C | 10% | - | 0.25 mm | - | - | - |
| 1777840665 | 20° C | 10% | - | 0.25 mm | - | - | - |
| 1777840065 | 20° C | 10% | - | 0 mm | - | - | - |
| 1777839464 | 20° C | 10% | - | 0 mm | - | - | - |
| 1777838864 | 20° C | 10% | - | 0 mm | - | - | - |
| 1777838263 | 20.56° C | 81% | 1013 hPa | 0 mm | - | - | - |
| 1777837663 | 22.22° C | 66% | 1013 hPa | 0 mm | - | - | - |
| 1777837062 | 23.33° C | 61% | 1013 hPa | 0 mm | - | - | - |
| 1777836462 | 23.89° C | 50% | 1013 hPa | 0 mm | - | - | - |
| 1777835861 | 23.89° C | 47% | 1013 hPa | 0 mm | - | - | - |
| 1777835261 | 23.89° C | 47% | 1013 hPa | 0 mm | - | - | - |
| 1777834660 | 25° C | 47% | 1013 hPa | 0 mm | - | - | - |
| 1777834059 | 26.11° C | 47% | 1013 hPa | 0 mm | - | - | - |
| 1777833459 | 23.33° C | 71% | 1014 hPa | 0 mm | - | - | - |
| 1777832858 | 23.89° C | 51% | 1014 hPa | 0 mm | - | - | - |
| 1777832258 | 25° C | 51% | 1014 hPa | 0 mm | - | - | - |
| 1777831657 | 26.11° C | 47% | 1014 hPa | 0 mm | - | - | - |
| 1777831056 | 23.89° C | 50% | 1014 hPa | 0 mm | - | - | - |
| 1777830456 | 25° C | 50% | 1014 hPa | 0 mm | - | - | - |
| 1777829855 | 24.44° C | 58% | 1014 hPa | 0 mm | - | - | - |
* Rain latest hour (hover to see other rain measurements)
** Current wind speed in m/s (hover to see current wind gust speed)